createdAt,value
2022-12-18T00:01:03.335Z,18.49
2022-12-18T00:03:29.795Z,17.85
2022-12-18T04:07:40.743Z,7.53
2022-12-18T04:10:07.115Z,7.23
2022-12-18T04:12:33.479Z,7.26
2022-12-18T04:14:59.853Z,7.28
2022-12-18T04:17:26.219Z,7.06
2022-12-18T04:19:52.583Z,7.11
2022-12-18T04:22:18.942Z,7.18
2022-12-18T04:24:45.321Z,6.58
2022-12-18T04:27:11.684Z,7.08
2022-12-18T04:29:38.055Z,6.85
2022-12-18T04:32:04.423Z,7.03
2022-12-18T04:34:30.805Z,6.95
2022-12-18T04:36:57.658Z,6.75
2022-12-18T04:39:24.082Z,6.63
2022-12-18T04:41:51.142Z,6.61
2022-12-18T04:44:17.603Z,6.63
2022-12-18T04:46:44.058Z,6.65
2022-12-18T04:49:10.523Z,6.54
2022-12-18T04:51:36.891Z,6.47
2022-12-18T04:54:03.300Z,6.33
2022-12-18T04:56:29.681Z,6.45
2022-12-18T04:58:56.066Z,6.25
2022-12-18T05:01:22.511Z,6.17
2022-12-18T05:03:49.025Z,6.50
2022-12-18T05:06:15.422Z,6.39
2022-12-18T05:08:41.774Z,6.23
2022-12-18T05:11:08.224Z,6.28
2022-12-18T05:13:34.598Z,5.90
2022-12-18T05:16:00.997Z,5.83
2022-12-18T05:18:27.459Z,6.11
2022-12-18T05:20:53.838Z,6.19
2022-12-18T05:23:20.216Z,5.96
2022-12-18T05:25:46.610Z,6.10
2022-12-18T05:28:12.970Z,5.96
2022-12-18T05:30:39.348Z,5.73
2022-12-18T05:33:05.738Z,6.18
2022-12-18T05:35:32.133Z,5.87
2022-12-18T05:37:58.491Z,6.21
2022-12-18T05:40:25.242Z,5.52
2022-12-18T05:42:51.638Z,5.63
2022-12-18T05:45:18.030Z,5.76
2022-12-18T05:47:44.392Z,5.82
2022-12-18T05:50:10.748Z,5.53
2022-12-18T05:52:37.191Z,5.61
2022-12-18T05:55:03.558Z,5.22
2022-12-18T05:57:29.941Z,5.62
2022-12-18T05:59:56.294Z,5.15
2022-12-18T06:02:22.784Z,5.36
2022-12-18T06:04:49.262Z,5.17
2022-12-18T06:07:15.653Z,5.27
2022-12-18T06:09:42.012Z,5.17
2022-12-18T06:12:08.385Z,5.07
2022-12-18T06:14:34.790Z,4.96
2022-12-18T06:17:01.174Z,5.32
2022-12-18T06:19:27.554Z,5.17
2022-12-18T06:21:53.924Z,4.97
2022-12-18T06:24:20.295Z,4.94
2022-12-18T06:26:46.650Z,5.13
2022-12-18T06:29:13.006Z,4.88
2022-12-18T06:31:39.409Z,5.23
2022-12-18T06:34:05.820Z,5.06
2022-12-18T06:36:32.206Z,4.90
2022-12-18T06:38:58.570Z,5.14
2022-12-18T06:41:24.948Z,4.92
2022-12-18T06:43:52.830Z,4.84
2022-12-18T06:46:20.995Z,4.93
2022-12-18T06:48:47.369Z,5.00
2022-12-18T06:51:13.737Z,4.54
2022-12-18T06:53:40.542Z,4.75
2022-12-18T06:56:10.164Z,4.56
2022-12-18T06:58:37.181Z,4.47
2022-12-18T07:01:03.601Z,4.46
2022-12-18T07:03:30.005Z,5.11
2022-12-18T07:05:56.369Z,5.66
2022-12-18T07:08:22.755Z,5.68
2022-12-18T07:10:52.915Z,5.40
2022-12-18T07:13:22.375Z,5.32
2022-12-18T07:15:48.759Z,5.07
2022-12-18T07:18:15.122Z,5.04
2022-12-18T07:20:41.742Z,4.94
2022-12-18T07:23:08.100Z,4.56
2022-12-18T07:25:34.478Z,4.62
2022-12-18T07:28:00.848Z,4.87
2022-12-18T07:30:27.222Z,4.48
2022-12-18T07:32:53.601Z,4.49
2022-12-18T07:35:24.720Z,4.33
2022-12-18T07:37:51.626Z,4.29
2022-12-18T07:40:17.996Z,4.13
2022-12-18T07:42:44.406Z,4.37
2022-12-18T07:45:10.786Z,4.59
2022-12-18T07:47:37.175Z,4.13
2022-12-18T07:50:03.558Z,4.02
2022-12-18T07:52:29.923Z,4.04
2022-12-18T07:54:56.303Z,4.23
2022-12-18T07:57:49.041Z,4.10
2022-12-18T08:00:09.011Z,4.10
2022-12-18T08:02:35.407Z,4.18
2022-12-18T08:05:01.920Z,4.20
2022-12-18T08:07:28.275Z,3.96
2022-12-18T08:09:54.657Z,4.10
2022-12-18T08:12:21.030Z,3.95
2022-12-18T08:14:47.411Z,4.12
2022-12-18T08:17:13.787Z,4.16
2022-12-18T08:19:40.173Z,4.02
2022-12-18T08:22:06.545Z,4.07
2022-12-18T08:24:32.930Z,4.20
2022-12-18T08:27:21.256Z,4.04
2022-12-18T08:29:45.663Z,4.03
2022-12-18T08:32:12.063Z,4.13
2022-12-18T08:34:38.466Z,4.20
2022-12-18T08:37:04.854Z,4.43
2022-12-18T08:39:31.216Z,4.24
2022-12-18T08:41:57.612Z,4.56
2022-12-18T08:44:23.971Z,4.32
2022-12-18T08:46:50.344Z,4.61
2022-12-18T08:49:16.710Z,4.34
2022-12-18T08:51:43.063Z,4.70
2022-12-18T08:54:09.430Z,4.66
2022-12-18T08:56:35.809Z,4.84
2022-12-18T08:59:02.195Z,4.96
2022-12-18T09:01:28.669Z,5.23
2022-12-18T09:03:55.134Z,5.14
2022-12-18T09:06:21.518Z,5.70
2022-12-18T09:08:47.884Z,6.24
2022-12-18T09:11:14.246Z,6.27
2022-12-18T09:13:40.997Z,6.76
2022-12-18T09:16:07.626Z,7.46
2022-12-18T09:18:33.991Z,7.71
2022-12-18T09:21:00.355Z,8.52
2022-12-18T09:23:26.725Z,8.53
2022-12-18T09:25:53.084Z,8.94
2022-12-18T09:28:19.470Z,8.84
2022-12-18T09:30:45.894Z,9.02
2022-12-18T09:33:12.298Z,9.59
2022-12-18T09:35:38.730Z,9.56
2022-12-18T09:38:05.098Z,9.76
2022-12-18T09:40:31.474Z,10.41
2022-12-18T09:42:57.855Z,10.38
2022-12-18T09:45:24.222Z,10.78
2022-12-18T09:47:50.619Z,10.85
2022-12-18T09:50:17.531Z,10.94
2022-12-18T09:52:43.993Z,10.81
2022-12-18T09:55:10.373Z,11.34
2022-12-18T09:57:36.739Z,11.49
2022-12-18T10:00:03.131Z,12.06
2022-12-18T10:02:29.660Z,12.67
2022-12-18T10:04:56.129Z,12.03
2022-12-18T10:07:22.500Z,12.52
2022-12-18T10:09:48.887Z,13.60
2022-12-18T10:12:15.259Z,13.45
2022-12-18T10:14:41.636Z,13.28
2022-12-18T10:17:07.999Z,13.37
2022-12-18T10:19:34.382Z,13.93
2022-12-18T10:22:00.779Z,13.92
2022-12-18T10:24:27.174Z,14.03
2022-12-18T10:26:53.542Z,14.08
2022-12-18T10:29:19.942Z,13.94
2022-12-18T10:31:46.315Z,14.05
2022-12-18T10:34:12.699Z,14.38
2022-12-18T10:36:39.090Z,14.46
2022-12-18T10:39:05.527Z,14.82
2022-12-18T10:41:31.931Z,15.22
2022-12-18T10:43:58.299Z,15.14
2022-12-18T10:46:25.254Z,16.09
2022-12-18T10:48:51.685Z,16.04
2022-12-18T10:51:18.068Z,16.59
2022-12-18T10:53:44.579Z,16.39
2022-12-18T10:56:11.005Z,16.71
2022-12-18T10:58:37.385Z,16.92
2022-12-18T11:01:03.789Z,16.70
2022-12-18T11:03:30.258Z,16.75
2022-12-18T11:05:56.660Z,16.86
2022-12-18T11:08:23.063Z,16.90
2022-12-18T11:10:49.454Z,17.59
2022-12-18T11:13:15.831Z,17.99
2022-12-18T11:15:42.257Z,18.58
2022-12-18T11:18:08.721Z,19.49
2022-12-18T11:20:35.087Z,19.42
2022-12-18T11:23:01.458Z,21.06
2022-12-18T11:25:32.304Z,23.21
2022-12-18T11:27:59.994Z,25.25
2022-12-18T11:30:26.738Z,28.33
2022-12-18T11:32:53.124Z,28.41
2022-12-18T11:35:19.502Z,31.71
2022-12-18T11:37:45.879Z,37.78
2022-12-18T11:40:12.248Z,38.21
2022-12-18T11:42:38.642Z,41.37
2022-12-18T11:45:05.027Z,45.06
2022-12-18T11:47:31.404Z,48.40
2022-12-18T11:49:57.779Z,52.67
2022-12-18T11:52:24.143Z,59.40
2022-12-18T11:54:50.525Z,65.64
2022-12-18T11:57:16.910Z,71.18
2022-12-18T11:59:43.301Z,76.77
2022-12-18T12:02:09.803Z,81.42
2022-12-18T12:04:36.316Z,86.91
2022-12-18T12:07:03.423Z,93.62
2022-12-18T12:09:29.976Z,100.58
2022-12-18T12:11:56.349Z,105.45
2022-12-18T12:14:22.746Z,110.16
2022-12-18T12:16:49.185Z,114.34
2022-12-18T12:19:15.621Z,119.65
2022-12-18T12:21:42.006Z,125.11
2022-12-18T12:24:08.405Z,131.78
2022-12-18T12:26:34.783Z,132.71
2022-12-18T12:29:01.160Z,138.64
2022-12-18T12:31:28.714Z,145.30
2022-12-18T12:33:55.456Z,150.70
2022-12-18T12:36:21.839Z,152.64
2022-12-18T12:38:51.852Z,152.29
2022-12-18T12:41:18.835Z,155.94
2022-12-18T12:43:50.566Z,159.06
2022-12-18T12:46:31.616Z,157.21
2022-12-18T12:48:58.009Z,161.41
2022-12-18T12:51:25.042Z,161.64
2022-12-18T12:53:51.422Z,166.01
2022-12-18T12:56:18.180Z,161.60
2022-12-18T12:58:45.409Z,166.00
2022-12-18T13:01:12.491Z,166.84
2022-12-18T13:03:38.930Z,167.97
2022-12-18T13:06:06.519Z,169.87
2022-12-18T13:08:35.033Z,169.87
2022-12-18T13:11:02.321Z,169.61
2022-12-18T13:13:30.075Z,170.28
2022-12-18T13:15:56.504Z,168.65
2022-12-18T13:18:22.910Z,171.05
2022-12-18T13:20:55.361Z,172.20
2022-12-18T13:23:24.832Z,168.50
2022-12-18T13:25:51.219Z,170.01
2022-12-18T13:28:17.610Z,169.25
2022-12-18T13:30:44.004Z,170.49
2022-12-18T13:33:10.407Z,167.60
2022-12-18T13:35:36.883Z,166.97
2022-12-18T13:38:03.290Z,166.07
2022-12-18T13:40:29.679Z,165.05
2022-12-18T13:42:56.078Z,162.76
2022-12-18T13:45:22.534Z,162.07
2022-12-18T13:47:49.059Z,160.32
2022-12-18T13:50:15.470Z,157.16
2022-12-18T13:52:41.919Z,155.18
2022-12-18T13:55:08.330Z,156.42
2022-12-18T13:57:34.735Z,153.28
2022-12-18T14:00:01.699Z,150.75
2022-12-18T14:02:28.698Z,152.14
2022-12-18T14:04:55.566Z,148.74
2022-12-18T14:07:21.978Z,146.58
2022-12-18T14:09:49.326Z,146.01
2022-12-18T14:12:15.730Z,146.22
2022-12-18T14:14:42.318Z,142.76
2022-12-18T14:17:08.821Z,142.36
2022-12-18T14:19:35.544Z,140.36
2022-12-18T14:22:01.971Z,137.67
2022-12-18T14:24:28.351Z,137.87
2022-12-18T14:26:54.741Z,137.70
2022-12-18T14:29:21.552Z,133.14
2022-12-18T14:31:48.175Z,131.51
2022-12-18T14:34:16.114Z,128.20
2022-12-18T14:36:42.518Z,127.18
2022-12-18T14:39:08.914Z,124.17
2022-12-18T14:41:35.319Z,124.51
2022-12-18T14:44:01.704Z,122.67
2022-12-18T14:46:28.189Z,121.11
2022-12-18T14:48:55.242Z,119.05
2022-12-18T14:51:21.637Z,116.51
2022-12-18T14:53:54.089Z,114.86
2022-12-18T14:56:21.360Z,115.64
2022-12-18T14:58:47.877Z,113.93
2022-12-18T15:01:14.403Z,112.26
2022-12-18T15:03:41.095Z,108.20
2022-12-18T15:06:07.769Z,101.05
2022-12-18T15:08:34.166Z,100.97
2022-12-18T15:11:01.093Z,101.57
2022-12-18T15:13:28.271Z,97.00
2022-12-18T15:15:54.683Z,93.83
2022-12-18T15:18:21.091Z,94.06
2022-12-18T15:20:47.511Z,93.13
2022-12-18T15:23:13.874Z,91.33
2022-12-18T15:25:40.243Z,88.94
2022-12-18T15:28:06.638Z,88.83
2022-12-18T15:30:33.058Z,88.35
2022-12-18T15:32:59.443Z,88.25
2022-12-18T15:35:25.835Z,86.85
2022-12-18T15:37:52.235Z,84.51
2022-12-18T15:40:18.616Z,83.01
2022-12-18T15:42:46.423Z,82.44
2022-12-18T15:45:12.818Z,81.57
2022-12-18T15:47:39.199Z,80.82
2022-12-18T15:50:05.578Z,80.03
2022-12-18T15:52:31.979Z,79.76
2022-12-18T15:54:58.359Z,79.34
2022-12-18T15:57:24.783Z,76.71
2022-12-18T15:59:51.197Z,75.31
2022-12-18T16:02:17.768Z,75.82
2022-12-18T16:04:44.238Z,74.01
2022-12-18T16:07:17.536Z,73.98
2022-12-18T16:09:51.066Z,73.67
2022-12-18T16:12:17.466Z,72.70
2022-12-18T16:14:43.938Z,72.04
2022-12-18T16:17:10.362Z,70.65
2022-12-18T16:19:36.735Z,70.76
2022-12-18T16:22:03.115Z,70.57
2022-12-18T16:24:29.518Z,69.00
2022-12-18T16:26:55.919Z,68.60
2022-12-18T16:29:22.309Z,67.86
2022-12-18T16:31:48.702Z,66.28
2022-12-18T16:34:15.094Z,66.43
2022-12-18T16:36:41.487Z,65.53
2022-12-18T16:39:07.863Z,66.00
2022-12-18T16:41:34.246Z,65.39
2022-12-18T16:44:00.623Z,64.63
2022-12-18T16:46:27.078Z,64.59
2022-12-18T16:48:53.544Z,63.57
2022-12-18T16:51:19.923Z,62.65
2022-12-18T16:53:46.335Z,61.08
2022-12-18T16:56:12.756Z,60.85
2022-12-18T16:58:39.140Z,60.36
2022-12-18T17:01:07.421Z,60.60
2022-12-18T17:03:33.861Z,60.00
2022-12-18T17:06:00.279Z,59.20
2022-12-18T17:08:26.648Z,58.32
2022-12-18T17:10:53.034Z,58.64
2022-12-18T17:13:25.444Z,56.74
2022-12-18T17:15:52.314Z,56.57
2022-12-18T17:18:18.714Z,56.11
2022-12-18T17:20:45.095Z,56.21
2022-12-18T17:23:11.487Z,55.46
2022-12-18T17:25:37.850Z,54.36
2022-12-18T17:28:04.242Z,54.14
2022-12-18T17:30:31.052Z,53.12
2022-12-18T17:32:57.422Z,52.62
2022-12-18T17:35:23.799Z,50.56
2022-12-18T17:37:50.166Z,49.85
2022-12-18T17:40:16.556Z,48.93
2022-12-18T17:42:42.951Z,49.32
2022-12-18T17:45:09.343Z,47.50
2022-12-18T17:47:35.738Z,47.88
2022-12-18T17:50:02.138Z,47.03
2022-12-18T17:52:28.514Z,47.44
2022-12-18T17:54:54.903Z,46.68
2022-12-18T17:57:21.307Z,45.87
2022-12-18T17:59:49.672Z,45.36
2022-12-18T18:02:16.222Z,45.07
2022-12-18T18:04:42.698Z,44.20
2022-12-18T18:07:09.086Z,43.92
2022-12-18T18:09:35.541Z,44.39
2022-12-18T18:12:01.934Z,43.08
2022-12-18T18:14:28.374Z,42.16
2022-12-18T18:16:54.774Z,42.31
2022-12-18T18:19:22.458Z,41.28
2022-12-18T18:21:48.854Z,41.00
2022-12-18T18:24:15.680Z,41.58
2022-12-18T18:26:42.089Z,41.21
2022-12-18T18:29:08.505Z,40.07
2022-12-18T18:31:38.234Z,40.90
2022-12-18T18:34:07.495Z,39.88
2022-12-18T18:36:34.557Z,40.11
2022-12-18T18:39:01.313Z,39.58
2022-12-18T18:41:27.689Z,39.97
2022-12-18T18:43:54.069Z,38.21
2022-12-18T18:46:20.501Z,37.81
2022-12-18T18:48:46.907Z,37.23
2022-12-18T18:51:15.585Z,37.39
2022-12-18T18:53:48.051Z,37.41
2022-12-18T18:56:45.499Z,36.97
2022-12-18T18:59:00.854Z,37.06
2022-12-18T19:01:27.374Z,36.30
2022-12-18T19:03:53.776Z,35.74
2022-12-18T19:06:20.198Z,35.86
2022-12-18T19:08:46.598Z,35.19
2022-12-18T19:11:12.993Z,35.20
2022-12-18T19:13:39.661Z,34.33
2022-12-18T19:16:06.459Z,34.97
